Time;durP1;ratioP1;P1;durP2;ratioP2;P2;SDS_P1;SDS_P2;PMS_P1;PMS_P2;Temp;Humidity;BMP_temperature;BMP_pressure;BME280_temperature;BME280_humidity;BME280_pressure;Samples;Min_cycle;Max_cycle;Signal;HPM_P1;HPM_P2
2022/03/31 00:00:34;;;;;;;6.95;1.10;;;;;;;;;;5052518;28;20088;-75
2022/03/31 00:03:01;;;;;;;4.47;1.10;;;;;;;;;;5052956;28;20045;-75
2022/03/31 00:05:27;;;;;;;6.68;1.27;;;;;;;;;;5052604;28;20137;-75
2022/03/31 00:07:57;;;;;;;6.07;1.10;;;;;;;;;;5051963;28;20052;-76
2022/03/31 00:10:27;;;;;;;4.65;1.08;;;;;;;;;;5052507;28;20048;-76
2022/03/31 00:12:54;;;;;;;6.22;1.20;;;;;;;;;;5052808;28;20047;-75
2022/03/31 00:15:21;;;;;;;5.05;1.27;;;;;;;;;;5052537;28;20135;-76
2022/03/31 00:17:48;;;;;;;3.88;0.90;;;;;;;;;;5053022;28;20048;-75
2022/03/31 00:20:14;;;;;;;3.22;0.90;;;;;;;;;;5052237;28;20107;-75
2022/03/31 00:22:41;;;;;;;5.72;1.13;;;;;;;;;;5052488;28;20052;-75
2022/03/31 00:25:08;;;;;;;4.28;1.35;;;;;;;;;;5052926;28;20051;-75
2022/03/31 00:27:35;;;;;;;4.30;1.20;;;;;;;;;;5052371;28;20132;-76
2022/03/31 00:30:02;;;;;;;7.90;1.20;;;;;;;;;;5052854;28;20434;-75
2022/03/31 00:32:28;;;;;;;6.35;1.30;;;;;;;;;;5052450;28;20080;-75
2022/03/31 00:34:55;;;;;;;5.72;1.10;;;;;;;;;;5052828;28;20049;-75
2022/03/31 00:37:21;;;;;;;4.78;1.20;;;;;;;;;;5052344;28;20080;-75
2022/03/31 00:39:48;;;;;;;3.92;1.17;;;;;;;;;;5052751;28;20072;-75
2022/03/31 00:42:15;;;;;;;7.10;1.85;;;;;;;;;;5052736;28;20049;-75
2022/03/31 00:44:42;;;;;;;9.05;1.52;;;;;;;;;;5052303;28;20052;-75
2022/03/31 00:47:08;;;;;;;5.55;1.35;;;;;;;;;;5052560;28;20449;-74
2022/03/31 00:49:35;;;;;;;2.97;1.23;;;;;;;;;;5053261;28;20077;-75
2022/03/31 00:52:01;;;;;;;6.20;1.33;;;;;;;;;;5051841;28;20408;-75
2022/03/31 00:54:28;;;;;;;8.68;1.75;;;;;;;;;;5052275;28;20374;-75
2022/03/31 00:56:56;;;;;;;5.45;1.27;;;;;;;;;;5052769;28;20045;-75
2022/03/31 00:59:22;;;;;;;6.68;1.73;;;;;;;;;;5050942;28;20451;-75
2022/03/31 01:01:49;;;;;;;4.13;1.13;;;;;;;;;;5051225;28;20067;-75
2022/03/31 01:04:15;;;;;;;4.72;1.35;;;;;;;;;;5052447;28;20056;-75
2022/03/31 01:06:45;;;;;;;5.72;1.40;;;;;;;;;;5052067;28;20049;-75
2022/03/31 01:09:12;;;;;;;7.72;2.03;;;;;;;;;;5052278;28;20049;-75
2022/03/31 01:11:39;;;;;;;7.05;1.38;;;;;;;;;;5051999;28;20041;-76
2022/03/31 01:14:06;;;;;;;5.25;1.05;;;;;;;;;;5051297;28;20045;-76
2022/03/31 01:16:33;;;;;;;6.05;1.40;;;;;;;;;;5052019;28;20519;-76
2022/03/31 01:19:03;;;;;;;6.63;1.63;;;;;;;;;;5052055;28;20152;-75
2022/03/31 01:21:30;;;;;;;10.55;2.10;;;;;;;;;;5052679;28;20492;-76
2022/03/31 01:23:56;;;;;;;5.97;1.50;;;;;;;;;;5055901;28;20135;-75
2022/03/31 01:26:22;;;;;;;8.80;1.40;;;;;;;;;;5055631;28;20076;-78
2022/03/31 01:28:50;;;;;;;9.73;1.50;;;;;;;;;;5054788;28;20048;-75
2022/03/31 01:31:16;;;;;;;5.47;1.52;;;;;;;;;;5055781;28;20057;-75
2022/03/31 01:33:42;;;;;;;10.18;2.25;;;;;;;;;;5055361;28;20343;-75
2022/03/31 01:36:08;;;;;;;6.93;1.42;;;;;;;;;;5055305;28;20497;-75
2022/03/31 01:38:35;;;;;;;7.30;1.55;;;;;;;;;;5054050;28;20127;-75
2022/03/31 01:41:01;;;;;;;10.82;1.42;;;;;;;;;;5055477;28;20547;-75
2022/03/31 01:43:27;;;;;;;6.78;1.40;;;;;;;;;;5055190;28;20076;-76
2022/03/31 01:45:54;;;;;;;5.13;1.48;;;;;;;;;;5055368;28;20049;-76
2022/03/31 01:48:21;;;;;;;4.68;1.50;;;;;;;;;;5054039;28;20051;-76
2022/03/31 01:50:47;;;;;;;5.82;1.42;;;;;;;;;;5053837;28;20048;-75
2022/03/31 01:53:18;;;;;;;4.97;1.27;;;;;;;;;;5054049;28;20481;-75
2022/03/31 01:55:44;;;;;;;6.80;1.40;;;;;;;;;;5055060;28;20148;-75
2022/03/31 01:58:10;;;;;;;7.38;1.52;;;4.40;99.90;;;;;;5053971;28;20132;-75
2022/03/31 02:00:36;;;;;;;6.80;1.30;;;4.40;99.90;;;;;;5053553;28;20124;-75
2022/03/31 02:03:03;;;;;;;3.50;1.33;;;4.50;99.90;;;;;;5054055;28;20313;-75
2022/03/31 02:05:28;;;;;;;5.22;1.77;;;4.40;99.90;;;;;;5054704;28;20084;-75
2022/03/31 02:07:57;;;;;;;5.13;1.30;;;4.40;99.90;;;;;;5054951;28;20080;-75
2022/03/31 02:10:25;;;;;;;6.28;1.75;;;4.50;99.90;;;;;;5053901;28;20500;-75
2022/03/31 02:12:52;;;;;;;5.30;1.33;;;4.40;99.90;;;;;;5054761;28;20045;-76
2022/03/31 02:15:20;;;;;;;6.05;1.23;;;4.40;99.90;;;;;;5054920;28;20045;-75
2022/03/31 02:17:46;;;;;;;5.63;1.60;;;4.40;99.90;;;;;;5036992;28;20063;-76
2022/03/31 02:20:12;;;;;;;6.55;1.70;;;4.40;99.90;;;;;;5053294;28;20142;-76
2022/03/31 02:22:39;;;;;;;5.10;1.43;;;4.40;99.90;;;;;;5053470;28;20494;-75
2022/03/31 02:25:08;;;;;;;7.28;1.55;;;4.50;99.90;;;;;;5053675;28;20294;-77
2022/03/31 02:27:35;;;;;;;5.35;1.35;;;4.40;99.90;;;;;;5054378;28;20048;-77
2022/03/31 02:30:03;;;;;;;5.75;1.25;;;4.40;99.90;;;;;;5054579;28;20481;-77
2022/03/31 02:32:29;;;;;;;4.15;1.20;;;4.40;99.90;;;;;;5052542;28;20106;-78
2022/03/31 02:34:55;;;;;;;7.93;1.30;;;4.40;99.90;;;;;;5052680;28;20041;-76
2022/03/31 02:37:20;;;;;;;7.60;1.50;;;4.40;99.90;;;;;;5054392;28;20501;-76
2022/03/31 02:39:46;;;;;;;5.20;1.90;;;4.40;99.90;;;;;;5053650;28;20485;-76
2022/03/31 02:42:12;;;;;;;7.73;2.00;;;4.30;99.90;;;;;;5053186;28;20049;-83
2022/03/31 02:44:38;;;;;;;6.17;1.60;;;4.30;99.90;;;;;;5054081;28;20051;-76
2022/03/31 02:47:05;;;;;;;8.07;1.50;;;4.30;99.90;;;;;;5053970;28;20084;-76
2022/03/31 02:49:30;;;;;;;9.80;2.05;;;4.30;99.90;;;;;;5053025;28;20045;-76
2022/03/31 02:51:56;;;;;;;8.07;1.90;;;4.30;99.90;;;;;;5054367;28;20048;-76
2022/03/31 02:57:06;;;;;;;7.13;2.40;;;4.30;99.90;;;;;;5053396;28;20080;-76
2022/03/31 02:59:32;;;;;;;12.90;2.90;;;4.30;99.90;;;;;;5053637;28;20080;-75
2022/03/31 03:01:58;;;;;;;7.60;2.13;;;4.30;99.90;;;;;;5036497;28;20102;-74
2022/03/31 03:04:24;;;;;;;12.98;2.20;;;4.30;99.90;;;;;;5052216;28;20040;-74
2022/03/31 03:06:50;;;;;;;7.72;2.03;;;4.30;99.90;;;;;;5053626;28;20053;-74
2022/03/31 03:09:16;;;;;;;6.60;1.63;;;4.30;99.90;;;;;;5053750;28;20084;-74
2022/03/31 03:11:41;;;;;;;5.60;1.50;;;4.20;99.90;;;;;;5036008;28;20049;-74
2022/03/31 03:14:11;;;;;;;7.43;1.97;;;4.30;99.90;;;;;;5053987;28;20071;-74
2022/03/31 03:16:38;;;;;;;4.72;1.90;;;4.30;99.90;;;;;;5053450;28;20048;-74
2022/03/31 03:19:04;;;;;;;6.50;1.77;;;4.30;99.90;;;;;;5052421;28;20484;-74
2022/03/31 03:21:30;;;;;;;5.97;1.77;;;4.20;99.90;;;;;;5052571;28;20106;-74
2022/03/31 03:23:55;;;;;;;9.77;2.15;;;4.10;99.90;;;;;;5053327;28;20053;-74
2022/03/31 03:26:21;;;;;;;8.53;1.93;;;4.20;99.90;;;;;;5035870;28;20092;-74
2022/03/31 03:28:47;;;;;;;9.10;2.10;;;4.10;99.90;;;;;;5053146;28;20494;-74
2022/03/31 03:31:13;;;;;;;6.22;2.00;;;4.00;99.90;;;;;;5053457;28;20049;-74
2022/03/31 03:33:40;;;;;;;6.10;2.10;;;3.90;99.90;;;;;;5053149;28;20055;-74
2022/03/31 03:36:10;;;;;;;8.10;2.92;;;3.90;99.90;;;;;;5052142;28;20531;-73
2022/03/31 03:38:36;;;;;;;7.40;3.00;;;3.90;99.90;;;;;;5052963;28;20047;-74
2022/03/31 03:41:02;;;;;;;5.53;2.50;;;3.90;99.90;;;;;;5053008;28;20555;-73
2022/03/31 03:43:28;;;;;;;5.13;2.72;;;3.90;99.90;;;;;;5052323;28;20126;-73
2022/03/31 03:45:54;;;;;;;9.90;3.80;;;3.90;99.90;;;;;;5052533;28;20459;-74
2022/03/31 03:48:21;;;;;;;9.40;3.70;;;3.80;99.90;;;;;;5051979;28;20052;-74
2022/03/31 03:50:48;;;;;;;9.43;3.40;;;3.80;99.90;;;;;;5052827;28;20044;-74
2022/03/31 03:53:14;;;;;;;6.18;3.28;;;3.80;99.90;;;;;;5053156;28;20084;-73
2022/03/31 03:55:41;;;;;;;8.48;4.03;;;3.70;99.90;;;;;;5052897;28;20432;-74
2022/03/31 03:58:06;;;;;;;8.98;3.28;;;3.80;99.90;;;;;;5053007;28;20564;-73
2022/03/31 04:00:33;;;;;;;7.87;3.30;;;3.90;99.90;;;;;;5052898;28;20128;-74
2022/03/31 04:02:58;;;;;;;5.70;3.08;;;3.80;99.90;;;;;;5052757;28;20064;-74
2022/03/31 04:05:24;;;;;;;5.30;2.67;;;3.80;99.90;;;;;;5052927;28;20473;-73
2022/03/31 04:07:50;;;;;;;7.13;3.10;;;3.80;99.90;;;;;;5052638;28;20049;-73
2022/03/31 04:10:16;;;;;;;5.70;2.90;;;3.80;99.90;;;;;;5052928;28;20051;-73
2022/03/31 04:12:42;;;;;;;5.20;2.60;;;3.80;99.90;;;;;;5051228;28;20045;-73
2022/03/31 04:15:09;;;;;;;4.78;2.53;;;3.80;99.90;;;;;;5051304;28;20485;-73
2022/03/31 04:17:35;;;;;;;4.38;2.40;;;3.70;99.90;;;;;;5053012;28;20103;-74
2022/03/31 04:20:01;;;;;;;5.85;2.70;;;3.70;99.90;;;;;;5052587;28;20155;-75
2022/03/31 04:22:27;;;;;;;4.13;2.30;;;3.60;99.90;;;;;;5051752;28;20052;-75
2022/03/31 04:24:53;;;;;;;6.28;2.97;;;3.70;99.90;;;;;;5052459;28;20056;-75
2022/03/31 04:27:19;;;;;;;8.43;2.58;;;3.60;99.90;;;;;;5052937;28;20076;-74
2022/03/31 04:29:45;;;;;;;5.97;3.27;;;3.60;99.90;;;;;;5052336;28;20037;-74
2022/03/31 04:32:12;;;;;;;4.50;2.87;;;3.60;99.90;;;;;;5052617;28;20052;-74
2022/03/31 04:34:38;;;;;;;6.45;3.20;;;3.50;99.90;;;;;;5052695;28;20123;-73
2022/03/31 04:37:04;;;;;;;5.10;3.30;;;3.50;99.90;;;;;;5051380;28;20548;-73
2022/03/31 04:39:30;;;;;;;6.10;2.78;;;3.40;99.90;;;;;;5052627;28;20045;-71
2022/03/31 04:41:55;;;;;;;5.70;3.30;;;3.30;99.90;;;;;;5051322;28;20045;-72
2022/03/31 04:44:21;;;;;;;5.07;2.80;;;3.40;99.90;;;;;;5051653;28;20049;-73
2022/03/31 04:46:47;;;;;;;4.93;3.17;;;3.40;99.90;;;;;;5052592;28;20056;-73
2022/03/31 04:49:13;;;;;;;5.85;3.05;;;3.40;99.90;;;;;;5052510;28;20051;-73
2022/03/31 04:51:39;;;;;;;6.03;3.03;;;3.30;99.90;;;;;;5052494;28;20049;-72
2022/03/31 04:54:05;;;;;;;6.38;3.20;;;3.30;99.90;;;;;;5052196;28;20049;-72
2022/03/31 04:56:31;;;;;;;8.00;3.42;;;3.30;99.90;;;;;;5053092;28;20388;-72
2022/03/31 04:58:58;;;;;;;8.00;3.10;;;3.40;99.90;;;;;;5055959;28;20041;-72
2022/03/31 05:01:24;;;;;;;5.25;3.35;;;3.20;99.90;;;;;;5055350;28;20053;-72
2022/03/31 05:03:50;;;;;;;5.60;3.53;;;3.20;99.90;;;;;;5055662;28;20460;-72
2022/03/31 05:06:17;;;;;;;5.32;3.83;;;3.20;99.90;;;;;;5055042;28;20045;-72
2022/03/31 05:08:43;;;;;;;6.82;3.65;;;3.20;99.90;;;;;;5056023;28;20052;-75
2022/03/31 05:11:09;;;;;;;5.73;3.60;;;3.10;99.90;;;;;;5056095;28;20424;-72
2022/03/31 05:13:34;;;;;;;5.10;3.20;;;3.10;99.90;;;;;;5056026;28;20366;-73
2022/03/31 05:16:00;;;;;;;7.40;3.63;;;3.20;99.90;;;;;;5055818;28;20118;-72
2022/03/31 05:18:26;;;;;;;8.30;4.20;;;3.10;99.90;;;;;;5055981;28;20503;-72
2022/03/31 05:20:52;;;;;;;5.05;3.03;;;3.00;99.90;;;;;;5054053;28;20057;-72
2022/03/31 05:23:18;;;;;;;6.57;3.47;;;3.00;99.90;;;;;;5055724;28;20497;-73
2022/03/31 05:25:44;;;;;;;8.23;3.60;;;3.00;99.90;;;;;;5055650;28;20055;-75
2022/03/31 05:28:11;;;;;;;8.05;3.92;;;3.00;99.90;;;;;;5056126;28;20054;-72
2022/03/31 05:30:37;;;;;;;8.02;3.72;;;3.00;99.90;;;;;;5055751;28;20138;-72
2022/03/31 05:33:04;;;;;;;8.77;3.40;;;2.90;99.90;;;;;;5055485;28;20049;-72
2022/03/31 05:35:30;;;;;;;8.10;3.90;;;2.90;99.90;;;;;;5055606;28;20132;-72
2022/03/31 05:37:56;;;;;;;7.50;3.70;;;2.90;99.90;;;;;;5055348;28;20084;-72
2022/03/31 05:40:23;;;;;;;7.20;3.65;;;2.90;99.90;;;;;;5055662;28;20643;-72
2022/03/31 05:42:49;;;;;;;8.80;3.53;;;2.90;99.90;;;;;;5055292;28;20099;-73
2022/03/31 05:45:15;;;;;;;7.60;3.90;;;2.90;99.90;;;;;;5055678;28;20080;-72
2022/03/31 05:47:42;;;;;;;8.00;4.20;;;2.90;99.90;;;;;;5054216;28;20052;-72
2022/03/31 05:50:10;;;;;;;6.95;3.92;;;3.00;99.90;;;;;;5053882;28;20045;-72
2022/03/31 05:52:38;;;;;;;8.10;4.03;;;3.00;99.90;;;;;;5055260;28;20128;-72
2022/03/31 05:55:06;;;;;;;8.63;3.30;;;3.00;99.90;;;;;;5054676;28;20489;-72
2022/03/31 05:57:34;;;;;;;7.05;4.00;;;3.00;99.90;;;;;;5055169;28;20566;-72
2022/03/31 05:59:59;;;;;;;8.73;3.85;;;3.00;99.90;;;;;;5053672;28;20048;-72
2022/03/31 06:02:25;;;;;;;5.97;3.63;;;3.10;99.90;;;;;;5053961;28;20127;-72
2022/03/31 06:04:51;;;;;;;7.93;3.20;;;3.10;99.90;;;;;;5054843;28;20076;-72
2022/03/31 06:07:17;;;;;;;7.47;3.97;;;3.10;99.90;;;;;;5054944;28;20485;-72
2022/03/31 06:09:43;;;;;;;9.23;3.40;;;3.10;99.90;;;;;;5054002;28;20114;-72
2022/03/31 06:12:09;;;;;;;6.53;3.53;;;3.20;99.90;;;;;;5054584;28;20371;-72
2022/03/31 06:14:35;;;;;;;5.88;3.67;;;3.20;99.90;;;;;;5054897;28;20048;-72
2022/03/31 06:17:01;;;;;;;10.20;3.90;;;3.30;99.90;;;;;;5054547;28;20045;-72
2022/03/31 06:19:27;;;;;;;9.50;4.20;;;3.30;99.90;;;;;;5054582;28;20404;-72
2022/03/31 06:21:52;;;;;;;7.23;4.20;;;3.30;99.90;;;;;;5054472;28;20477;-73
2022/03/31 06:24:18;;;;;;;9.27;4.40;;;3.30;99.90;;;;;;5055207;28;20044;-72
2022/03/31 06:26:44;;;;;;;7.90;4.50;;;3.30;99.90;;;;;;5053498;28;20056;-72
2022/03/31 06:29:10;;;;;;;7.87;4.47;;;3.40;99.90;;;;;;5054384;28;20907;-72
2022/03/31 06:31:38;;;;;;;7.73;5.33;;;3.30;99.90;;;;;;5053666;28;20128;-72
2022/03/31 06:34:04;;;;;;;11.10;5.90;;;3.40;99.90;;;;;;5053124;28;20045;-72
2022/03/31 06:36:30;;;;;;;8.23;6.00;;;3.30;99.90;;;;;;5054642;28;20047;-72
2022/03/31 06:38:57;;;;;;;8.15;5.97;;;3.40;99.90;;;;;;5053804;28;20485;-72
2022/03/31 06:41:23;;;;;;;13.77;6.60;;;3.50;99.90;;;;;;5054453;28;20048;-72
2022/03/31 06:43:49;;;;;;;7.45;6.13;;;3.50;99.90;;;;;;5054077;28;20496;-72
2022/03/31 06:46:16;;;;;;;9.43;7.45;;;3.50;99.90;;;;;;5054019;28;20463;-72
2022/03/31 06:48:46;;;;;;;9.38;6.80;;;3.60;99.90;;;;;;5053013;28;20081;-72
2022/03/31 06:51:13;;;;;;;9.02;7.13;;;3.60;99.90;;;;;;5053901;28;20052;-72
2022/03/31 06:53:40;;;;;;;9.05;7.50;;;3.60;99.90;;;;;;5053066;28;20053;-73
2022/03/31 06:56:13;;;;;;;10.10;8.00;;;3.60;99.90;;;;;;5053816;28;20052;-75
2022/03/31 06:58:40;;;;;;;9.93;8.32;;;3.60;99.90;;;;;;5054071;28;20095;-72
2022/03/31 07:01:06;;;;;;;11.13;9.20;;;3.60;99.90;;;;;;5053497;28;20592;-72
2022/03/31 07:03:31;;;;;;;11.93;8.77;;;3.60;99.90;;;;;;5052742;28;20124;-72
2022/03/31 07:05:58;;;;;;;10.97;9.20;;;3.60;99.90;;;;;;5053625;28;20132;-73
2022/03/31 07:08:24;;;;;;;10.65;8.80;;;3.60;99.90;;;;;;5053885;28;20048;-73
2022/03/31 07:10:51;;;;;;;10.70;8.20;;;3.60;99.90;;;;;;5053832;28;20048;-72
2022/03/31 07:13:16;;;;;;;11.27;9.45;;;3.50;99.90;;;;;;5053526;28;20041;-73
2022/03/31 07:15:42;;;;;;;10.63;8.50;;;3.60;99.90;;;;;;5053842;28;20040;-73
2022/03/31 07:18:08;;;;;;;9.67;7.47;;;3.60;99.90;;;;;;5053434;28;20497;-72
2022/03/31 07:20:35;;;;;;;12.53;9.63;;;3.70;99.90;;;;;;5052521;28;20311;-77
2022/03/31 07:23:01;;;;;;;12.00;9.70;;;3.70;99.90;;;;;;5053380;28;20102;-73
2022/03/31 07:25:28;;;;;;;8.05;6.10;;;3.70;99.90;;;;;;5053552;28;20117;-73
2022/03/31 07:27:54;;;;;;;7.63;6.07;;;3.60;99.90;;;;;;5052353;28;20166;-73
2022/03/31 07:30:21;;;;;;;8.25;6.72;;;3.70;99.90;;;;;;5051972;28;20037;-73
2022/03/31 07:32:52;;;;;;;7.45;5.25;;;3.60;99.90;;;;;;5053654;28;20057;-73
2022/03/31 07:35:20;;;;;;;7.25;5.60;;;3.60;99.90;;;;;;5053169;28;20045;-74
2022/03/31 07:37:46;;;;;;;6.15;4.82;;;3.60;99.90;;;;;;5036058;28;20049;-73
2022/03/31 07:40:12;;;;;;;7.68;5.13;;;3.60;99.90;;;;;;5051960;28;20044;-73
2022/03/31 07:42:38;;;;;;;6.30;5.05;;;3.60;99.90;;;;;;5053290;28;20044;-73
2022/03/31 07:45:04;;;;;;;6.57;4.90;;;3.60;99.90;;;;;;5053049;28;20136;-74
2022/03/31 07:47:30;;;;;;;6.38;5.15;;;3.60;99.90;;;;;;5053177;28;20048;-74
2022/03/31 07:49:56;;;;;;;5.63;4.70;;;3.60;99.90;;;;;;5053165;28;20049;-73
2022/03/31 07:52:22;;;;;;;7.17;4.53;;;3.70;99.90;;;;;;5052778;28;20041;-73
2022/03/31 07:54:48;;;;;;;6.87;4.90;;;3.60;99.90;;;;;;5035551;28;20049;-73
2022/03/31 07:57:14;;;;;;;6.82;5.63;;;3.70;99.90;;;;;;5051648;28;20048;-73
2022/03/31 07:59:40;;;;;;;6.38;5.07;;;3.70;99.90;;;;;;5051807;28;20131;-73
2022/03/31 08:02:06;;;;;;;7.68;5.90;;;3.60;99.90;;;;;;5051836;28;20084;-73
2022/03/31 08:04:32;;;;;;;11.10;7.05;;;3.70;99.90;;;;;;5052973;28;20103;-73
2022/03/31 08:06:59;;;;;;;7.20;5.85;;;3.60;99.90;;;;;;5053023;28;20043;-72
2022/03/31 08:09:26;;;;;;;7.30;6.25;;;3.50;99.90;;;;;;5053027;28;20052;-73
2022/03/31 08:11:52;;;;;;;7.97;7.15;;;3.50;99.90;;;;;;5053093;28;20041;-70
2022/03/31 08:14:19;;;;;;;7.57;6.63;;;3.60;99.90;;;;;;5052292;28;20401;-72
2022/03/31 08:16:49;;;;;;;7.90;6.60;;;3.60;99.90;;;;;;5052856;28;20175;-72
2022/03/31 08:19:17;;;;;;;9.15;7.57;;;3.60;99.90;;;;;;5051123;28;20061;-72
2022/03/31 08:21:44;;;;;;;11.57;8.85;;;3.60;99.90;;;;;;5052876;28;20045;-72
2022/03/31 08:24:11;;;;;;;9.25;7.88;;;3.50;99.90;;;;;;5051352;28;20124;-72
2022/03/31 08:26:43;;;;;;;8.38;6.95;;;3.60;99.90;;;;;;5052820;28;20045;-72
2022/03/31 08:29:10;;;;;;;9.88;7.97;;;3.60;99.90;;;;;;5051417;28;20044;-72
2022/03/31 08:31:36;;;;;;;9.10;7.30;;;3.50;99.90;;;;;;5055451;28;20045;-72
2022/03/31 08:34:02;;;;;;;8.73;6.53;;;3.50;99.90;;;;;;5056274;28;20512;-77
2022/03/31 08:36:29;;;;;;;7.25;6.15;;;3.50;99.90;;;;;;5056811;28;20045;-71
2022/03/31 08:38:55;;;;;;;8.20;7.18;;;3.60;99.90;;;;;;5056674;28;20045;-71
2022/03/31 08:41:24;;;;;;;8.52;7.35;;;3.60;99.90;;;;;;5055241;28;20396;-72
2022/03/31 08:43:51;;;;;;;7.90;6.85;;;3.60;99.90;;;;;;5056794;28;20048;-71
2022/03/31 08:46:18;;;;;;;8.13;6.85;;;3.60;99.90;;;;;;5056316;28;20084;-72
2022/03/31 08:48:44;;;;;;;7.20;6.18;;;3.60;99.90;;;;;;5055404;28;20103;-71
2022/03/31 08:51:10;;;;;;;7.10;6.28;;;3.60;99.90;;;;;;5055145;28;20041;-71
2022/03/31 08:53:36;;;;;;;8.35;6.45;;;3.60;99.90;;;;;;5056813;28;20122;-71
2022/03/31 08:56:03;;;;;;;8.83;7.27;;;3.50;99.90;;;;;;5055495;28;20481;-71
2022/03/31 08:58:29;;;;;;;7.68;6.30;;;3.60;99.90;;;;;;5056439;28;20318;-71
2022/03/31 09:00:55;;;;;;;7.77;6.57;;;3.50;99.90;;;;;;5056604;28;20081;-71
2022/03/31 09:03:35;;;;;;;8.43;7.00;;;3.50;99.90;;;;;;5056000;28;20041;-71
2022/03/31 09:06:03;;;;;;;8.63;6.80;;;3.60;99.90;;;;;;5056499;28;20401;-70
2022/03/31 09:08:30;;;;;;;9.18;7.50;;;3.60;99.90;;;;;;5056248;28;20049;-70
2022/03/31 09:11:03;;;;;;;8.30;6.57;;;3.50;99.90;;;;;;5056300;28;20056;-70
2022/03/31 09:13:34;;;;;;;7.68;6.18;;;3.50;99.90;;;;;;5056143;28;20130;-72
2022/03/31 09:16:03;;;;;;;8.10;6.88;;;3.60;99.90;;;;;;5056180;28;20045;-69
2022/03/31 09:18:31;;;;;;;9.15;7.72;;;3.60;99.90;;;;;;5052626;28;20056;-71
2022/03/31 09:20:59;;;;;;;8.35;6.68;;;3.40;99.90;;;;;;5044308;28;20045;-72
2022/03/31 09:23:31;;;;;;;9.07;7.13;;;3.50;99.90;;;;;;5045962;28;20489;-72
2022/03/31 09:26:09;;;;;;;8.63;6.90;;;3.40;99.90;;;;;;5046494;28;20486;-72
2022/03/31 09:28:39;;;;;;;8.20;6.55;;;3.40;99.90;;;;;;5045482;28;20045;-72
2022/03/31 09:31:12;;;;;;;8.60;6.38;;;3.40;99.90;;;;;;5041670;28;20485;-72
2022/03/31 09:33:42;;;;;;;8.45;6.85;;;3.40;99.90;;;;;;5044433;28;20053;-72
2022/03/31 09:36:16;;;;;;;9.10;7.47;;;3.30;99.90;;;;;;5042375;28;20053;-77
2022/03/31 09:39:03;;;;;;;10.75;7.88;;;3.30;99.90;;;;;;5042961;28;20124;-78
2022/03/31 09:41:31;;;;;;;9.40;7.72;;;3.30;99.90;;;;;;5042583;28;20045;-76
2022/03/31 09:43:59;;;;;;;9.68;7.97;;;3.30;99.90;;;;;;5043736;28;20041;-76
2022/03/31 09:46:33;;;;;;;9.25;6.47;;;3.30;99.90;;;;;;5045665;28;20045;-81
2022/03/31 09:49:09;;;;;;;10.30;8.20;;;3.20;99.90;;;;;;5045179;28;20550;-79
2022/03/31 09:51:34;;;;;;;9.50;7.40;;;3.00;99.90;;;;;;5044652;28;20135;-83
2022/03/31 09:54:00;;;;;;;8.37;6.63;;;3.10;99.90;;;;;;5043888;28;20481;-80
2022/03/31 09:56:26;;;;;;;9.93;7.87;;;3.10;99.90;;;;;;5045488;28;20543;-80
2022/03/31 09:58:53;;;;;;;9.77;8.13;;;3.00;99.90;;;;;;5043880;28;20374;-80
2022/03/31 10:01:20;;;;;;;12.50;9.27;;;3.00;99.90;;;;;;5042185;28;20049;-81
2022/03/31 10:03:46;;;;;;;10.27;7.80;;;3.00;99.90;;;;;;5044479;28;20048;-80
2022/03/31 10:06:13;;;;;;;8.03;5.77;;;3.10;99.90;;;;;;5044497;28;20071;-80
2022/03/31 10:08:42;;;;;;;7.00;5.72;;;3.10;99.90;;;;;;5043606;28;20080;-81
2022/03/31 10:11:10;;;;;;;7.13;5.47;;;3.20;99.90;;;;;;5045272;28;20087;-83
2022/03/31 10:14:05;;;;;;;6.88;5.68;;;3.10;99.90;;;;;;5037687;28;20076;-79
2022/03/31 10:16:39;;;;;;;6.47;4.95;;;3.10;99.90;;;;;;5038080;28;20076;-81
2022/03/31 10:19:05;;;;;;;7.82;5.82;;;3.10;99.90;;;;;;5043692;28;20076;-78
2022/03/31 10:21:31;;;;;;;7.45;5.20;;;3.00;99.90;;;;;;5045844;28;20041;-74
2022/03/31 10:26:41;;;;;;;6.68;4.93;;;2.90;99.90;;;;;;5055134;28;20067;-76
2022/03/31 10:29:13;;;;;;;6.77;5.23;;;;;;;;;;5054790;28;20048;-78
2022/03/31 10:31:42;;;;;;;7.65;5.90;;;2.90;99.90;;;;;;5054702;28;20057;-76
2022/03/31 10:34:09;;;;;;;8.85;7.05;;;2.90;99.90;;;;;;5054710;28;20456;-82
2022/03/31 10:36:43;;;;;;;7.63;6.15;;;2.80;99.90;;;;;;5054286;28;20045;-77
2022/03/31 10:39:16;;;;;;;7.82;5.90;;;2.90;99.90;;;;;;5054697;28;20128;-78
2022/03/31 10:41:43;;;;;;;6.78;5.07;;;2.90;99.90;;;;;;5053717;28;20484;-76
2022/03/31 10:44:12;;;;;;;7.57;5.68;;;2.80;99.90;;;;;;5054447;28;20063;-71
2022/03/31 10:46:39;;;;;;;7.95;5.82;;;2.70;99.90;;;;;;5053107;28;20060;-81
2022/03/31 10:49:12;;;;;;;7.93;4.75;;;2.70;99.90;;;;;;5054517;28;20044;-80
2022/03/31 10:51:41;;;;;;;7.60;5.35;;;2.70;99.90;;;;;;5054061;28;20049;-72
2022/03/31 10:54:12;;;;;;;6.30;4.65;;;2.70;99.90;;;;;;5059833;28;20128;-82
2022/03/31 10:56:40;;;;;;;8.98;5.70;;;2.60;99.90;;;;;;5067371;28;20041;-84
2022/03/31 10:59:06;;;;;;;7.75;6.05;;;2.60;99.90;;;;;;5056271;28;20388;-72
2022/03/31 11:01:38;;;;;;;6.35;4.70;;;2.50;99.90;;;;;;5053986;28;20056;-72
2022/03/31 11:04:09;;;;;;;7.68;5.35;;;2.50;99.90;;;;;;5054210;28;20048;-72
2022/03/31 11:06:51;;;;;;;6.90;5.28;;;2.40;99.90;;;;;;5054191;28;20370;-72
2022/03/31 11:09:31;;;;;;;10.43;6.50;;;2.40;99.90;;;;;;5053727;28;20071;-72
2022/03/31 11:11:59;;;;;;;7.60;5.70;;;2.40;99.90;;;;;;5054037;28;20048;-71
2022/03/31 11:14:26;;;;;;;7.80;5.35;;;2.40;99.90;;;;;;5052891;28;20401;-73
2022/03/31 11:16:58;;;;;;;7.47;5.10;;;2.50;99.90;;;;;;5215452;27;20486;-73
2022/03/31 11:19:34;;;;;;;8.43;5.17;;;2.50;99.90;;;;;;5193897;27;20076;-73
2022/03/31 11:22:00;;;;;;;8.30;5.55;;;2.40;99.90;;;;;;5194081;27;20050;-72
2022/03/31 11:24:26;;;;;;;8.70;6.00;;;2.40;99.90;;;;;;5175268;27;20038;-72
2022/03/31 11:26:54;;;;;;;7.70;6.10;;;2.30;99.90;;;;;;5194014;27;20050;-72
2022/03/31 11:29:24;;;;;;;6.50;4.72;;;2.30;99.90;;;;;;5193472;27;20050;-86
2022/03/31 11:31:51;;;;;;;7.65;5.50;;;2.40;99.90;;;;;;5157947;27;20053;-88
2022/03/31 11:34:22;;;;;;;7.90;5.43;;;2.40;99.90;;;;;;5175342;27;20054;-74
2022/03/31 11:36:50;;;;;;;8.23;6.28;;;2.40;99.90;;;;;;5193708;27;20117;-73
2022/03/31 11:39:18;;;;;;;6.95;4.97;;;2.40;99.90;;;;;;5174739;27;20411;-73
2022/03/31 11:41:45;;;;;;;6.75;5.03;;;2.30;99.90;;;;;;5192685;27;20106;-73
2022/03/31 11:44:11;;;;;;;6.65;4.75;;;2.40;99.90;;;;;;5193506;27;20054;-74
2022/03/31 11:46:41;;;;;;;7.55;5.25;;;2.30;99.90;;;;;;5193229;27;20038;-74
2022/03/31 11:49:25;;;;;;;7.00;4.75;;;2.30;99.90;;;;;;5174775;27;20136;-73
2022/03/31 11:51:55;;;;;;;7.93;5.18;;;2.30;99.90;;;;;;5193441;27;20278;-73
2022/03/31 11:54:22;;;;;;;7.30;5.28;;;2.20;99.90;;;;;;5193113;27;20042;-83
2022/03/31 11:57:02;;;;;;;6.00;4.40;;;2.20;99.90;;;;;;5193172;27;20098;-73
2022/03/31 11:59:28;;;;;;;6.95;4.47;;;2.10;99.90;;;;;;5174218;27;20049;-73
2022/03/31 12:01:55;;;;;;;8.65;4.57;;;2.00;99.90;;;;;;5174652;27;20156;-73
2022/03/31 12:04:22;;;;;;;6.60;4.38;;;2.10;99.90;;;;;;5193021;27;20061;-84
2022/03/31 12:06:50;;;;;;;6.55;4.45;;;2.00;99.90;;;;;;5193081;27;20042;-73
2022/03/31 12:09:16;;;;;;;8.95;4.80;;;2.00;99.90;;;;;;5193031;27;20498;-73
2022/03/31 12:11:42;;;;;;;7.30;4.80;;;;;;;;;;5192760;27;20090;-74
2022/03/31 12:14:10;;;;;;;7.15;4.50;;;;;;;;;;5192625;27;20050;-71
2022/03/31 12:16:52;;;;;;;7.82;5.35;;;;;;;;;;5173252;27;20138;-70
2022/03/31 12:19:19;;;;;;;6.40;4.63;;;;;;;;;;5192758;27;20473;-75
2022/03/31 12:21:58;;;;;;;8.20;5.20;;;;;;;;;;5192538;27;20389;-79
2022/03/31 12:24:25;;;;;;;7.28;5.43;;;;;;;;;;5192592;27;20046;-81
2022/03/31 12:26:54;;;;;;;8.65;5.53;;;;;;;;;;5168938;27;20069;-81
2022/03/31 12:29:21;;;;;;;6.85;4.47;;;;;;;;;;5178623;27;20049;-81
2022/03/31 12:31:48;;;;;;;7.00;4.70;;;;;;;;;;5178045;27;20394;-73
2022/03/31 12:34:14;;;;;;;8.35;5.53;;;;;;;;;;5178631;27;20072;-73
2022/03/31 12:36:42;;;;;;;9.23;7.55;;;;;;;;;;5159565;27;20038;-78
2022/03/31 12:39:09;;;;;;;9.43;7.80;;;;;;;;;;5178316;27;20046;-79
2022/03/31 12:41:36;;;;;;;12.18;8.88;;;;;;;;;;5177989;27;20042;-78
2022/03/31 12:44:16;;;;;;;11.93;9.55;;;;;;;;;;5178266;27;20102;-78
2022/03/31 12:46:48;;;;;;;12.70;9.07;;;;;;;;;;5177995;27;20073;-80
2022/03/31 12:49:15;;;;;;;8.15;6.38;;;;;;;;;;5178270;27;20125;-80
2022/03/31 12:51:49;;;;;;;8.60;6.15;;;;;;;;;;5177871;27;20137;-78
2022/03/31 12:54:18;;;;;;;9.23;6.35;;;;;;;;;;5178061;27;20056;-77
2022/03/31 12:56:48;;;;;;;10.88;6.70;;;;;;;;;;5177628;27;20175;-76
2022/03/31 12:59:23;;;;;;;8.88;6.32;;;;;;;;;;5159627;27;20102;-76
2022/03/31 13:01:56;;;;;;;7.60;5.40;;;;;;;;;;5177793;27;20046;-75
2022/03/31 13:04:22;;;;;;;9.23;5.68;;;;;;;;;;5177933;27;20038;-75
2022/03/31 13:06:48;;;;;;;8.40;5.72;;;;;;;;;;5149579;27;20050;-76
2022/03/31 13:09:14;;;;;;;8.95;6.65;;;;;;;;;;5166497;27;20042;-76
2022/03/31 13:11:42;;;;;;;7.35;5.80;;;;;;;;;;5167455;27;20038;-76
2022/03/31 13:14:10;;;;;;;8.93;6.60;;;;;;;;;;5148059;27;20096;-75
2022/03/31 13:16:37;;;;;;;8.75;5.72;;;;;;;;;;5158591;27;20414;-77
2022/03/31 13:19:03;;;;;;;8.05;6.10;;;;;;;;;;5165596;27;20048;-73
2022/03/31 13:21:29;;;;;;;7.45;5.72;;;;;;;;;;5167883;27;20046;-82
2022/03/31 13:24:02;;;;;;;8.23;5.47;;;;;;;;;;5165603;27;20062;-73
2022/03/31 13:26:30;;;;;;;8.52;6.25;;;;;;;;;;5168494;27;20034;-68